KJES

Details ICAO KJES (JES)
Name JESUP WAYNE CO
Region United States
Timezone America/New_York (UTC-4.0)
Plans Departing 1
Arriving 1
Stats Elevation 108 ft / 33 m (AMSL)
Location 31.553963° -81.882518°
Runways 1
Magnetic Variation 6.534° W
Sunrise 2018-05-25 10:27:08 UTC / 2018-05-25 06:27:08 Local
Sunset 2018-05-26 00:24:43 UTC / 2018-05-25 20:24:43 Local
Advertisement - Login to hide

Runways

ID Width Length Bearing (true) Bearing (mag) Surface Threshold Offset Overrun Length
10 75 ft / 23 m 5,491 ft / 1,674 m 99.52° 106.05° Asphalt 0 ft / 0 m 0 ft / 0 m
28 75 ft / 23 m 5,491 ft / 1,674 m 279.53° 286.06° Asphalt 0 ft / 0 m 0 ft / 0 m

Map

Weather


0- 5 10 15 20 25 30 35+ Temperature / ° C

Clouds and Precipitation
Forecast for 2018-05-25 06:00 UTC. Updated 2 hours ago

Ground ~20,000 ft ~40,000 ft Winds

METAR

KJES 250735Z AUTO 00000KT 2SM BR OVC004 22/20 A3004 RMK AO2 T02200202

TAF

Not found

Frequencies

Unicom 122.80 MHz CTAF/UNICOM
Warning: Do not use this data for real-world aviation or navigation. No guarantee of current accuracy is given.